createdAt,value
2019-05-07T00:00:55.680Z,85.16
2019-05-07T00:03:22.469Z,85.33
2019-05-07T00:05:49.193Z,85.44
2019-05-07T00:08:15.975Z,85.85
2019-05-07T00:10:42.692Z,85.95
2019-05-07T00:13:09.358Z,85.97
2019-05-07T00:15:36.216Z,85.89
2019-05-07T00:18:03.388Z,85.38
2019-05-07T00:20:32.555Z,85.04
2019-05-07T00:22:58.975Z,84.66
2019-05-07T00:25:25.670Z,84.56
2019-05-07T00:27:54.848Z,84.64
2019-05-07T00:30:22.361Z,84.49
2019-05-07T00:32:49.216Z,84.27
2019-05-07T00:35:18.528Z,84.90
2019-05-07T00:37:52.382Z,84.41
2019-05-07T00:40:45.014Z,85.46
2019-05-07T00:43:17.833Z,85.46
2019-05-07T00:46:04.098Z,85.17
2019-05-07T00:48:32.832Z,84.38
2019-05-07T00:51:17.677Z,84.17
2019-05-07T00:53:44.454Z,84.49
2019-05-07T00:56:12.420Z,85.02
2019-05-07T00:58:39.342Z,85.24
2019-05-07T01:01:06.442Z,85.49
2019-05-07T01:03:33.907Z,85.64
2019-05-07T01:06:02.072Z,85.65
2019-05-07T01:08:29.102Z,85.92
2019-05-07T01:10:56.175Z,85.88
2019-05-07T01:13:23.527Z,85.99
2019-05-07T01:15:50.440Z,85.22
2019-05-07T01:18:17.120Z,85.66
2019-05-07T01:20:43.722Z,85.50
2019-05-07T01:23:13.234Z,85.63
2019-05-07T01:25:39.406Z,85.52
2019-05-07T01:28:06.191Z,85.44
2019-05-07T01:30:32.994Z,85.34
2019-05-07T01:33:20.175Z,85.44
2019-05-07T01:36:10.304Z,85.82
2019-05-07T01:38:36.995Z,86.18
2019-05-07T01:41:03.739Z,86.13
2019-05-07T01:43:32.124Z,86.51
2019-05-07T01:45:59.061Z,86.76
2019-05-07T01:48:26.889Z,86.80
2019-05-07T01:50:53.689Z,86.77
2019-05-07T01:53:22.600Z,87.48
2019-05-07T01:55:49.147Z,87.30
2019-05-07T01:58:15.911Z,87.46
2019-05-07T02:00:42.706Z,87.27
2019-05-07T02:03:16.936Z,87.63
2019-05-07T02:05:49.700Z,87.87
2019-05-07T02:08:26.601Z,88.19
2019-05-07T02:13:41.891Z,88.13
2019-05-07T02:16:08.439Z,87.95
2019-05-07T02:18:35.153Z,88.04
2019-05-07T02:21:03.979Z,88.14
2019-05-07T02:23:32.869Z,88.32
2019-05-07T02:25:59.375Z,88.45
2019-05-07T02:28:26.142Z,88.35
2019-05-07T02:30:56.736Z,88.23
2019-05-07T02:33:23.695Z,88.13
2019-05-07T02:35:53.351Z,88.14
2019-05-07T02:38:26.725Z,88.30
2019-05-07T02:41:15.779Z,88.25
2019-05-07T02:43:43.762Z,88.03
2019-05-07T02:46:33.003Z,87.85
2019-05-07T02:49:23.475Z,87.84
2019-05-07T02:51:56.536Z,87.63
2019-05-07T02:54:28.182Z,87.50
2019-05-07T02:56:56.205Z,87.46
2019-05-07T02:59:23.504Z,87.66
2019-05-07T03:01:53.464Z,87.58
2019-05-07T03:04:19.263Z,87.54
2019-05-07T03:06:46.063Z,87.57
2019-05-07T03:09:14.368Z,87.33
2019-05-07T03:11:43.445Z,87.29
2019-05-07T03:14:10.246Z,87.06
2019-05-07T03:16:43.629Z,86.80
2019-05-07T03:19:05.631Z,86.71
2019-05-07T03:21:53.457Z,86.79
2019-05-07T03:24:25.127Z,86.36
2019-05-07T03:26:53.584Z,85.95
2019-05-07T03:29:24.024Z,86.00
2019-05-07T03:32:16.537Z,86.30
2019-05-07T03:34:50.379Z,86.39
2019-05-07T03:37:23.681Z,86.33
2019-05-07T03:39:50.427Z,86.60
2019-05-07T03:42:17.265Z,86.88
2019-05-07T03:45:09.258Z,86.69
2019-05-07T03:47:38.391Z,86.60
2019-05-07T03:50:07.731Z,86.41
2019-05-07T03:52:35.707Z,86.62
2019-05-07T03:55:03.669Z,86.70
2019-05-07T03:57:33.329Z,86.61
2019-05-07T03:59:59.993Z,86.77
2019-05-07T04:02:26.771Z,86.88
2019-05-07T04:04:53.543Z,87.15
2019-05-07T04:07:23.368Z,87.36
2019-05-07T04:09:53.331Z,87.42
2019-05-07T04:12:20.084Z,87.26
2019-05-07T04:14:46.669Z,87.55
2019-05-07T04:17:21.405Z,87.84
2019-05-07T04:19:44.119Z,87.94
2019-05-07T04:22:13.373Z,88.11
2019-05-07T04:25:04.419Z,88.05
2019-05-07T04:27:46.288Z,88.02
2019-05-07T04:30:12.747Z,87.96
2019-05-07T04:32:46.432Z,87.91
2019-05-07T04:35:29.155Z,87.84
2019-05-07T04:37:55.956Z,87.65
2019-05-07T04:40:24.023Z,87.76
2019-05-07T04:42:53.750Z,87.83
2019-05-07T04:45:23.184Z,87.94
2019-05-07T04:47:49.520Z,87.88
2019-05-07T04:50:36.756Z,87.56
2019-05-07T04:52:47.202Z,87.23
2019-05-07T04:55:14.892Z,86.90
2019-05-07T04:57:43.877Z,86.56
2019-05-07T05:00:13.392Z,85.84
2019-05-07T05:02:53.184Z,85.84
2019-05-07T05:05:23.266Z,86.12
2019-05-07T05:07:49.119Z,86.27
2019-05-07T05:10:15.910Z,85.24
2019-05-07T05:12:43.025Z,83.95
2019-05-07T05:15:12.054Z,82.52
2019-05-07T05:17:48.053Z,82.41
2019-05-07T05:20:08.072Z,81.93
2019-05-07T05:22:45.464Z,81.56
2019-05-07T05:25:16.331Z,82.46
2019-05-07T05:27:43.126Z,82.78
2019-05-07T05:30:17.226Z,81.94
2019-05-07T05:32:43.934Z,81.23
2019-05-07T05:35:12.638Z,80.47
2019-05-07T05:37:39.301Z,79.46
2019-05-07T05:40:28.369Z,78.39
2019-05-07T05:43:04.868Z,77.44
2019-05-07T05:45:38.719Z,74.86
2019-05-07T05:48:08.469Z,74.21
2019-05-07T05:50:55.957Z,74.09
2019-05-07T05:53:45.699Z,73.80
2019-05-07T05:56:19.635Z,73.27
2019-05-07T05:59:02.829Z,70.25
2019-05-07T06:01:52.176Z,67.87
2019-05-07T06:04:26.570Z,62.27
2019-05-07T06:07:08.804Z,62.92
2019-05-07T06:09:57.118Z,61.68
2019-05-07T06:12:46.142Z,59.39
2019-05-07T06:15:23.084Z,58.28
2019-05-07T06:20:58.795Z,60.96
2019-05-07T06:23:37.033Z,62.09
2019-05-07T06:26:05.028Z,60.29
2019-05-07T06:28:33.046Z,60.04
2019-05-07T06:31:02.023Z,57.89
2019-05-07T06:33:28.484Z,55.84
2019-05-07T06:35:55.294Z,55.23
2019-05-07T06:38:23.004Z,57.58
2019-05-07T06:41:03.967Z,57.40
2019-05-07T06:43:38.406Z,60.29
2019-05-07T06:46:05.308Z,61.17
2019-05-07T06:48:41.959Z,62.30
2019-05-07T06:51:02.885Z,63.02
2019-05-07T06:53:32.942Z,64.64
2019-05-07T06:56:02.669Z,64.47
2019-05-07T06:58:35.157Z,64.64
2019-05-07T07:01:36.607Z,60.33
2019-05-07T07:04:09.534Z,58.86
2019-05-07T07:06:55.773Z,56.11
2019-05-07T07:09:29.058Z,53.00
2019-05-07T07:11:59.403Z,50.86
2019-05-07T07:14:26.279Z,46.47
2019-05-07T07:16:52.951Z,46.85
2019-05-07T07:19:23.128Z,48.94
2019-05-07T07:21:49.509Z,44.66
2019-05-07T07:24:16.279Z,37.06
2019-05-07T07:26:43.094Z,36.10
2019-05-07T07:29:12.711Z,37.19
2019-05-07T07:31:46.459Z,35.33
2019-05-07T07:34:13.200Z,34.41
2019-05-07T07:36:47.109Z,36.48
2019-05-07T07:39:13.823Z,41.00
2019-05-07T07:41:47.483Z,42.06
2019-05-07T07:44:14.272Z,44.09
2019-05-07T07:46:42.415Z,38.55
2019-05-07T07:49:14.032Z,34.99
2019-05-07T07:51:42.202Z,31.67
2019-05-07T07:54:06.962Z,33.07
2019-05-07T07:56:56.332Z,31.74
2019-05-07T07:59:42.208Z,31.75
2019-05-07T08:02:23.169Z,34.95
2019-05-07T08:04:50.021Z,33.93
2019-05-07T08:07:16.778Z,33.82
2019-05-07T08:09:43.541Z,29.04
2019-05-07T08:12:12.544Z,29.94
2019-05-07T08:14:39.012Z,31.14
2019-05-07T08:17:07.478Z,36.89
2019-05-07T08:19:34.253Z,44.15
2019-05-07T08:22:02.924Z,48.94
2019-05-07T08:24:31.907Z,47.66
2019-05-07T08:26:58.434Z,48.32
2019-05-07T08:29:25.118Z,44.49
2019-05-07T08:32:12.603Z,44.07
2019-05-07T08:34:47.631Z,46.76
2019-05-07T08:37:14.421Z,45.85
2019-05-07T08:39:42.858Z,44.63
2019-05-07T08:42:12.110Z,45.04
2019-05-07T08:44:44.991Z,43.70
2019-05-07T08:47:18.220Z,43.51
2019-05-07T08:49:44.796Z,37.46
2019-05-07T08:52:12.113Z,31.02
2019-05-07T08:54:38.978Z,32.01
2019-05-07T08:57:05.765Z,31.27
2019-05-07T08:59:33.613Z,32.48
2019-05-07T09:02:03.023Z,31.98
2019-05-07T09:04:29.415Z,32.12
2019-05-07T09:06:56.211Z,32.78
2019-05-07T09:09:22.987Z,31.24
2019-05-07T09:11:51.868Z,28.75
2019-05-07T09:14:18.638Z,34.15
2019-05-07T09:16:45.328Z,38.00
2019-05-07T09:19:12.920Z,40.45
2019-05-07T09:21:39.899Z,37.38
2019-05-07T09:24:07.383Z,36.13
2019-05-07T09:26:44.408Z,34.90
2019-05-07T09:29:28.466Z,31.44
2019-05-07T09:32:15.679Z,30.04
2019-05-07T09:34:44.585Z,28.76
2019-05-07T09:37:16.225Z,29.70
2019-05-07T09:39:43.058Z,32.71
2019-05-07T09:42:12.066Z,36.82
2019-05-07T09:44:38.407Z,39.86
2019-05-07T09:47:05.205Z,40.81
2019-05-07T09:49:32.697Z,44.42
2019-05-07T09:51:59.549Z,46.06
2019-05-07T09:54:26.336Z,45.03
2019-05-07T09:56:53.023Z,44.84
2019-05-07T09:59:21.723Z,45.73
2019-05-07T10:01:48.482Z,43.21
2019-05-07T10:04:15.276Z,36.78
2019-05-07T10:06:42.461Z,31.21
2019-05-07T10:09:09.319Z,28.22
2019-05-07T10:11:45.019Z,23.56
2019-05-07T10:14:12.504Z,22.74
2019-05-07T10:16:46.029Z,23.83
2019-05-07T10:19:12.774Z,28.58
2019-05-07T10:21:39.541Z,28.86
2019-05-07T10:24:06.317Z,27.18
2019-05-07T10:26:33.183Z,29.83
2019-05-07T10:29:02.000Z,31.57
2019-05-07T10:31:28.648Z,34.39
2019-05-07T10:33:55.452Z,32.95
2019-05-07T10:36:23.526Z,28.98
2019-05-07T10:38:52.063Z,26.40
2019-05-07T10:41:18.899Z,26.91
2019-05-07T10:43:45.728Z,28.28
2019-05-07T10:46:38.221Z,27.58
2019-05-07T10:49:14.784Z,28.83
2019-05-07T10:51:42.544Z,31.32
2019-05-07T10:54:09.456Z,29.06
2019-05-07T10:56:36.228Z,28.07
2019-05-07T10:59:03.699Z,29.02
2019-05-07T11:02:02.522Z,33.42
2019-05-07T11:04:40.163Z,36.61
2019-05-07T11:06:57.968Z,38.56
2019-05-07T11:09:24.670Z,40.55
2019-05-07T11:11:51.902Z,39.66
2019-05-07T11:14:18.700Z,36.72
2019-05-07T11:16:53.720Z,34.72
2019-05-07T11:19:22.096Z,33.71
2019-05-07T11:21:48.904Z,34.70
2019-05-07T11:24:15.597Z,34.53
2019-05-07T11:26:42.384Z,32.72
2019-05-07T11:29:09.006Z,30.82
2019-05-07T11:31:35.785Z,32.42
2019-05-07T11:34:04.565Z,33.57
2019-05-07T11:36:37.035Z,30.27
2019-05-07T11:39:05.379Z,31.59
2019-05-07T11:41:45.607Z,33.48
2019-05-07T11:44:17.481Z,32.85
2019-05-07T11:47:03.939Z,34.96
2019-05-07T11:49:56.349Z,32.67
2019-05-07T11:52:28.315Z,32.33
2019-05-07T11:54:55.084Z,32.75
2019-05-07T11:57:22.195Z,29.35
2019-05-07T11:59:48.862Z,28.55
2019-05-07T12:02:15.634Z,25.87
2019-05-07T12:04:42.323Z,24.48
2019-05-07T12:07:09.120Z,23.59
2019-05-07T12:09:35.903Z,24.96
2019-05-07T12:12:02.676Z,27.09
2019-05-07T12:14:32.520Z,27.13
2019-05-07T12:16:58.082Z,29.94
2019-05-07T12:19:24.751Z,28.97
2019-05-07T12:21:52.646Z,27.90
2019-05-07T12:24:19.444Z,25.60
2019-05-07T12:26:46.223Z,25.86
2019-05-07T12:29:12.960Z,26.65
2019-05-07T12:32:08.402Z,27.74
2019-05-07T12:34:38.275Z,26.32
2019-05-07T12:37:05.080Z,25.40
2019-05-07T12:39:32.023Z,21.50
2019-05-07T12:41:58.859Z,22.81
2019-05-07T12:44:27.192Z,25.62
2019-05-07T12:46:54.035Z,25.28
2019-05-07T12:49:22.113Z,24.09
2019-05-07T12:51:54.726Z,25.49
2019-05-07T12:54:36.089Z,23.20
2019-05-07T12:57:02.501Z,23.85
2019-05-07T12:59:29.604Z,23.47
2019-05-07T13:02:33.183Z,26.04
2019-05-07T13:04:45.058Z,28.46
2019-05-07T13:07:32.506Z,25.83
2019-05-07T13:09:59.402Z,24.61
2019-05-07T13:12:26.619Z,20.21
2019-05-07T13:14:53.439Z,22.18
2019-05-07T13:17:22.266Z,23.55
2019-05-07T13:19:48.910Z,22.74
2019-05-07T13:22:17.659Z,17.43
2019-05-07T13:24:46.884Z,15.54
2019-05-07T13:27:13.632Z,14.51
2019-05-07T13:29:42.491Z,15.33
2019-05-07T13:32:12.255Z,16.07
2019-05-07T13:34:42.550Z,17.04
2019-05-07T13:37:21.803Z,17.96
2019-05-07T13:39:53.781Z,15.13
2019-05-07T13:42:58.184Z,13.39
2019-05-07T13:45:33.304Z,18.37
2019-05-07T13:48:07.511Z,16.80
2019-05-07T13:50:54.399Z,14.93
2019-05-07T13:53:22.805Z,16.07
2019-05-07T13:55:50.175Z,13.34
2019-05-07T13:58:16.974Z,14.77
2019-05-07T14:01:06.711Z,20.20
2019-05-07T14:03:33.497Z,20.88
2019-05-07T14:06:02.091Z,21.15
2019-05-07T14:08:32.060Z,19.91
2019-05-07T14:10:58.940Z,21.90
2019-05-07T14:13:25.738Z,22.62
2019-05-07T14:16:05.717Z,22.49
2019-05-07T14:18:32.717Z,23.22
2019-05-07T14:21:01.783Z,24.28
2019-05-07T14:23:28.520Z,21.85
2019-05-07T14:25:55.184Z,20.67
2019-05-07T14:28:23.686Z,21.57
2019-05-07T14:30:52.255Z,22.99
2019-05-07T14:33:37.970Z,23.49
2019-05-07T14:36:11.625Z,22.13
2019-05-07T14:38:42.603Z,21.08
2019-05-07T14:41:09.558Z,22.12
2019-05-07T14:43:41.911Z,20.45
2019-05-07T14:46:08.792Z,19.39
2019-05-07T14:48:36.639Z,24.40
2019-05-07T14:51:03.524Z,25.65
2019-05-07T14:53:32.655Z,25.73
2019-05-07T14:55:59.730Z,24.91
2019-05-07T14:58:26.504Z,25.22
2019-05-07T15:00:54.682Z,25.23
2019-05-07T15:03:22.909Z,23.16
2019-05-07T15:05:55.115Z,21.87
2019-05-07T15:08:22.076Z,21.16
2019-05-07T15:10:48.949Z,22.24
2019-05-07T15:13:18.171Z,26.33
2019-05-07T15:15:45.338Z,28.02
2019-05-07T15:18:18.655Z,30.11
2019-05-07T15:20:45.758Z,31.57
2019-05-07T15:23:19.941Z,36.30
2019-05-07T15:25:46.813Z,39.15
2019-05-07T15:28:13.892Z,39.65
2019-05-07T15:30:56.107Z,39.60
2019-05-07T15:33:22.896Z,39.63
2019-05-07T15:35:51.570Z,40.89
2019-05-07T15:38:21.601Z,42.28
2019-05-07T15:40:48.395Z,42.15
2019-05-07T15:43:15.176Z,41.82
2019-05-07T15:45:41.989Z,42.67
2019-05-07T15:48:08.771Z,43.19
2019-05-07T15:50:35.456Z,41.57
2019-05-07T15:53:13.887Z,42.87
2019-05-07T15:55:41.750Z,43.51
2019-05-07T15:58:08.609Z,42.98
2019-05-07T16:00:36.727Z,42.10
2019-05-07T16:03:18.869Z,42.06
2019-05-07T16:05:45.608Z,42.13
2019-05-07T16:08:14.014Z,41.35
2019-05-07T16:10:42.897Z,41.90
2019-05-07T16:13:13.755Z,41.66
2019-05-07T16:15:42.385Z,42.15
2019-05-07T16:18:13.849Z,41.19
2019-05-07T16:20:42.342Z,41.05
2019-05-07T16:23:14.620Z,41.91
2019-05-07T16:25:38.251Z,41.12
2019-05-07T16:28:05.149Z,41.17
2019-05-07T16:30:34.397Z,40.90
2019-05-07T16:33:02.123Z,40.86
2019-05-07T16:35:29.059Z,40.26
2019-05-07T16:37:55.884Z,39.50
2019-05-07T16:40:23.052Z,40.59
2019-05-07T16:42:52.220Z,39.87
2019-05-07T16:45:19.427Z,38.99
2019-05-07T16:47:46.126Z,39.13
2019-05-07T16:50:13.455Z,39.44
2019-05-07T16:52:42.033Z,38.77
2019-05-07T16:55:12.105Z,39.13
2019-05-07T16:58:12.845Z,39.44
2019-05-07T17:00:46.495Z,40.85
2019-05-07T17:03:17.369Z,40.83
2019-05-07T17:05:43.968Z,40.32
2019-05-07T17:08:24.259Z,40.76
2019-05-07T17:10:52.356Z,40.74
2019-05-07T17:13:19.349Z,40.88
2019-05-07T17:15:58.778Z,40.95
2019-05-07T17:18:26.266Z,41.75
2019-05-07T17:20:53.655Z,41.38
2019-05-07T17:23:22.431Z,41.52
2019-05-07T17:25:49.195Z,41.75
2019-05-07T17:28:16.167Z,41.51
2019-05-07T17:30:42.848Z,41.71
2019-05-07T17:33:09.715Z,41.91
2019-05-07T17:35:36.448Z,42.38
2019-05-07T17:38:07.352Z,42.57
2019-05-07T17:40:32.185Z,42.40
2019-05-07T17:43:03.003Z,43.21
2019-05-07T17:45:29.269Z,43.56
2019-05-07T17:47:56.046Z,44.65
2019-05-07T17:50:27.842Z,44.62
2019-05-07T17:52:54.733Z,45.01
2019-05-07T17:55:22.305Z,45.44
2019-05-07T17:57:49.274Z,45.63
2019-05-07T18:00:17.039Z,46.40
2019-05-07T18:03:09.232Z,46.46
2019-05-07T18:05:35.923Z,46.42
2019-05-07T18:08:02.701Z,46.66
2019-05-07T18:10:31.752Z,46.48
2019-05-07T18:12:58.170Z,47.33
2019-05-07T18:15:24.825Z,48.66
2019-05-07T18:18:00.279Z,49.18
2019-05-07T18:20:27.267Z,49.65
2019-05-07T18:22:54.060Z,50.11
2019-05-07T18:25:21.727Z,50.66
2019-05-07T18:27:48.500Z,50.57
2019-05-07T18:30:15.393Z,50.23
2019-05-07T18:32:46.139Z,49.88
2019-05-07T18:35:12.688Z,49.99
2019-05-07T18:37:52.509Z,51.09
2019-05-07T18:40:20.350Z,51.25
2019-05-07T18:42:47.131Z,52.14
2019-05-07T18:45:13.895Z,53.83
2019-05-07T18:47:40.587Z,52.62
2019-05-07T18:50:07.509Z,53.95
2019-05-07T18:52:34.096Z,53.89
2019-05-07T18:55:02.762Z,55.50
2019-05-07T18:57:29.397Z,55.68
2019-05-07T18:59:55.977Z,56.89
2019-05-07T19:02:22.775Z,57.19
2019-05-07T19:04:51.805Z,58.07
2019-05-07T19:07:18.284Z,58.51
2019-05-07T19:09:47.748Z,58.89
2019-05-07T19:12:15.991Z,60.49
2019-05-07T19:14:42.815Z,61.02
2019-05-07T19:17:09.508Z,61.67
2019-05-07T19:19:36.435Z,62.25
2019-05-07T19:22:03.199Z,62.81
2019-05-07T19:24:43.725Z,63.32
2019-05-07T19:26:58.547Z,63.68
2019-05-07T19:29:25.393Z,64.05
2019-05-07T19:31:52.619Z,64.57
2019-05-07T19:34:21.820Z,64.21
2019-05-07T19:36:48.535Z,64.48
2019-05-07T19:39:15.329Z,65.05
2019-05-07T19:41:43.009Z,65.17
2019-05-07T19:44:09.886Z,65.45
2019-05-07T19:46:36.666Z,65.82
2019-05-07T19:49:03.491Z,66.52
2019-05-07T19:51:31.980Z,66.40
2019-05-07T19:53:58.654Z,66.27
2019-05-07T19:56:25.427Z,66.11
2019-05-07T19:58:52.707Z,66.30
2019-05-07T20:01:37.013Z,66.44
2019-05-07T20:04:03.811Z,66.71
2019-05-07T20:06:32.746Z,66.70
2019-05-07T20:09:09.918Z,67.28
2019-05-07T20:11:39.042Z,67.60
2019-05-07T20:14:05.882Z,68.01
2019-05-07T20:16:33.937Z,68.69
2019-05-07T20:19:01.457Z,68.87
2019-05-07T20:21:28.232Z,69.05
2019-05-07T20:23:54.916Z,69.27
2019-05-07T20:26:23.177Z,69.19
2019-05-07T20:28:52.567Z,69.81
2019-05-07T20:31:19.101Z,69.70
2019-05-07T20:33:45.806Z,70.22
2019-05-07T20:36:12.593Z,70.43
2019-05-07T20:38:39.405Z,70.55
2019-05-07T20:41:06.212Z,70.71
2019-05-07T20:43:32.996Z,70.85
2019-05-07T20:46:00.079Z,71.11
2019-05-07T20:48:29.279Z,71.32
2019-05-07T20:50:56.355Z,71.46
2019-05-07T20:53:42.787Z,71.76
2019-05-07T20:56:11.710Z,71.69
2019-05-07T20:58:38.638Z,71.99
2019-05-07T21:01:05.450Z,71.51
2019-05-07T21:03:32.555Z,71.14
2019-05-07T21:05:59.304Z,71.58
2019-05-07T21:08:25.992Z,71.58
2019-05-07T21:10:53.794Z,71.30
2019-05-07T21:13:30.124Z,71.29
2019-05-07T21:15:49.445Z,71.52
2019-05-07T21:18:16.283Z,71.61
2019-05-07T21:20:43.038Z,71.91
2019-05-07T21:23:12.067Z,71.60
2019-05-07T21:25:45.203Z,72.18
2019-05-07T21:28:07.169Z,72.19
2019-05-07T21:30:33.974Z,72.37
2019-05-07T21:33:00.691Z,72.74
2019-05-07T21:35:27.377Z,73.00
2019-05-07T21:37:54.155Z,73.29
2019-05-07T21:40:22.465Z,73.52
2019-05-07T21:42:49.611Z,73.73
2019-05-07T21:45:16.528Z,73.95
2019-05-07T21:47:43.211Z,74.18
2019-05-07T21:50:12.284Z,74.68
2019-05-07T21:52:40.756Z,73.99
2019-05-07T21:55:23.572Z,73.99
2019-05-07T21:58:13.382Z,74.51
2019-05-07T22:01:02.131Z,74.70
2019-05-07T22:03:34.659Z,75.23
2019-05-07T22:05:58.702Z,75.28
2019-05-07T22:08:25.579Z,75.90
2019-05-07T22:10:52.562Z,75.78
2019-05-07T22:13:21.913Z,75.61
2019-05-07T22:15:48.355Z,76.13
2019-05-07T22:18:15.033Z,75.69
2019-05-07T22:20:42.685Z,75.91
2019-05-07T22:23:09.437Z,76.23
2019-05-07T22:25:36.483Z,77.30
2019-05-07T22:28:04.769Z,77.30
2019-05-07T22:30:52.803Z,77.34
2019-05-07T22:33:28.701Z,77.78
2019-05-07T22:35:55.615Z,77.96
2019-05-07T22:38:22.894Z,78.20
2019-05-07T22:40:51.692Z,78.72
2019-05-07T22:43:18.376Z,78.98
2019-05-07T22:45:45.167Z,79.16
2019-05-07T22:48:12.327Z,79.67
2019-05-07T22:50:39.200Z,79.11
2019-05-07T22:53:05.929Z,78.96
2019-05-07T22:55:32.892Z,78.65
2019-05-07T22:58:14.010Z,78.58
2019-05-07T23:00:49.834Z,78.78
2019-05-07T23:03:16.516Z,79.36
2019-05-07T23:05:44.956Z,79.34
2019-05-07T23:08:12.788Z,79.68
2019-05-07T23:10:39.845Z,79.68
2019-05-07T23:13:06.450Z,79.58
2019-05-07T23:15:33.313Z,79.44
2019-05-07T23:18:04.171Z,80.06
2019-05-07T23:20:28.858Z,80.08
2019-05-07T23:22:55.654Z,79.99
2019-05-07T23:25:24.465Z,79.81
2019-05-07T23:27:52.472Z,79.74
2019-05-07T23:30:19.391Z,79.77
2019-05-07T23:32:45.995Z,79.65
2019-05-07T23:35:13.178Z,79.84
2019-05-07T23:37:42.154Z,80.13
2019-05-07T23:40:15.963Z,80.57
2019-05-07T23:42:43.847Z,80.92
2019-05-07T23:45:12.560Z,80.55
2019-05-07T23:47:39.641Z,80.17
2019-05-07T23:50:06.621Z,80.01
2019-05-07T23:52:33.334Z,80.21
2019-05-07T23:55:03.012Z,80.66
2019-05-07T23:57:32.323Z,80.76
2019-05-07T23:59:58.315Z,80.40
